createdAt,value
2019-05-18T00:01:55.130Z,68.14
2019-05-18T00:04:25.586Z,68.14
2019-05-18T00:06:56.209Z,68.16
2019-05-18T00:09:26.587Z,68.27
2019-05-18T00:11:56.981Z,68.19
2019-05-18T00:14:27.506Z,68.28
2019-05-18T00:16:57.971Z,68.37
2019-05-18T00:19:28.608Z,68.46
2019-05-18T00:21:59.024Z,68.53
2019-05-18T00:24:29.429Z,68.46
2019-05-18T00:26:59.971Z,68.44
2019-05-18T00:29:30.378Z,68.33
2019-05-18T00:32:00.978Z,68.46
2019-05-18T00:34:31.392Z,68.51
2019-05-18T00:37:01.884Z,68.60
2019-05-18T00:39:32.291Z,68.64
2019-05-18T00:42:02.816Z,68.60
2019-05-18T00:44:43.270Z,68.71
2019-05-18T00:47:19.730Z,68.82
2019-05-18T00:49:50.156Z,68.76
2019-05-18T00:52:20.559Z,68.72
2019-05-18T00:54:51.149Z,68.71
2019-05-18T00:57:21.504Z,68.80
2019-05-18T00:59:51.997Z,68.84
2019-05-18T01:02:22.572Z,68.77
2019-05-18T01:04:53.043Z,68.66
2019-05-18T01:07:23.445Z,68.87
2019-05-18T01:09:53.909Z,68.99
2019-05-18T01:12:24.356Z,69.03
2019-05-18T01:14:54.974Z,69.07
2019-05-18T01:17:25.366Z,69.11
2019-05-18T01:19:55.983Z,69.21
2019-05-18T01:22:26.364Z,69.36
2019-05-18T01:24:56.721Z,69.36
2019-05-18T01:27:27.119Z,69.50
2019-05-18T01:29:58.396Z,69.50
2019-05-18T01:32:29.206Z,69.64
2019-05-18T01:34:59.831Z,69.78
2019-05-18T01:37:30.182Z,69.92
2019-05-18T01:40:00.582Z,70.06
2019-05-18T01:42:31.159Z,70.15
2019-05-18T01:45:15.788Z,70.27
2019-05-18T01:47:33.454Z,70.37
2019-05-18T01:50:03.977Z,70.50
2019-05-18T01:52:34.555Z,70.62
2019-05-18T01:55:05.177Z,70.68
2019-05-18T01:57:35.686Z,70.79
2019-05-18T02:00:09.009Z,70.87
2019-05-18T02:02:39.522Z,70.99
2019-05-18T02:05:10.139Z,71.15
2019-05-18T02:07:40.847Z,71.36
2019-05-18T02:10:11.648Z,71.44
2019-05-18T02:12:42.248Z,71.50
2019-05-18T02:15:13.390Z,71.62
2019-05-18T02:17:43.870Z,71.85
2019-05-18T02:20:14.352Z,72.10
2019-05-18T02:22:44.863Z,72.31
2019-05-18T02:25:15.577Z,72.39
2019-05-18T02:27:45.953Z,72.67
2019-05-18T02:30:17.725Z,72.73
2019-05-18T02:32:48.326Z,72.87
2019-05-18T02:35:18.732Z,72.96
2019-05-18T02:37:49.103Z,73.11
2019-05-18T02:40:19.805Z,73.17
2019-05-18T02:42:50.438Z,73.29
2019-05-18T02:45:21.107Z,73.33
2019-05-18T02:47:51.415Z,73.46
2019-05-18T02:50:21.654Z,73.49
2019-05-18T02:52:51.708Z,73.53
2019-05-18T02:55:22.056Z,73.66
2019-05-18T02:57:52.572Z,73.83
2019-05-18T03:00:22.986Z,73.98
2019-05-18T03:02:53.134Z,74.08
2019-05-18T03:05:23.296Z,74.18
2019-05-18T03:07:53.458Z,74.27
2019-05-18T03:10:23.686Z,74.40
2019-05-18T03:12:53.881Z,74.50
2019-05-18T03:15:24.136Z,74.59
2019-05-18T03:17:54.297Z,74.65
2019-05-18T03:20:24.541Z,74.70
2019-05-18T03:22:54.668Z,74.79
2019-05-18T03:25:24.986Z,74.87
2019-05-18T03:27:55.270Z,74.94
2019-05-18T03:30:25.512Z,75.04
2019-05-18T03:32:55.776Z,75.22
2019-05-18T03:35:25.945Z,75.25
2019-05-18T03:37:56.025Z,75.37
2019-05-18T03:40:26.205Z,75.47
2019-05-18T03:42:56.404Z,75.53
2019-05-18T03:45:27.021Z,75.60
2019-05-18T03:47:57.209Z,75.67
2019-05-18T03:50:27.447Z,75.74
2019-05-18T03:52:58.056Z,75.88
2019-05-18T03:55:28.327Z,75.97
2019-05-18T03:57:58.562Z,75.99
2019-05-18T04:00:28.925Z,76.01
2019-05-18T04:02:59.270Z,76.07
2019-05-18T04:05:29.579Z,76.16
2019-05-18T04:07:59.824Z,76.09
2019-05-18T04:10:30.217Z,76.07
2019-05-18T04:13:00.429Z,76.08
2019-05-18T04:15:30.825Z,76.05
2019-05-18T04:18:01.035Z,75.94
2019-05-18T04:20:31.215Z,75.98
2019-05-18T04:23:01.362Z,76.02
2019-05-18T04:25:31.950Z,75.89
2019-05-18T04:28:02.539Z,75.96
2019-05-18T04:30:33.032Z,75.90
2019-05-18T04:33:03.590Z,75.81
2019-05-18T04:35:34.189Z,75.63
2019-05-18T04:38:04.850Z,75.57
2019-05-18T04:40:35.358Z,75.52
2019-05-18T04:45:47.077Z,75.47
2019-05-18T04:48:17.680Z,75.48
2019-05-18T04:50:48.154Z,75.51
2019-05-18T04:53:18.560Z,75.58
2019-05-18T04:55:49.100Z,75.58
2019-05-18T04:58:19.624Z,75.57
2019-05-18T05:00:50.112Z,75.56
2019-05-18T05:03:20.570Z,75.57
2019-05-18T05:05:51.077Z,75.61
2019-05-18T05:08:21.738Z,75.58
2019-05-18T05:10:52.251Z,75.52
2019-05-18T05:13:22.891Z,75.53
2019-05-18T05:15:53.488Z,75.46
2019-05-18T05:18:24.363Z,75.46
2019-05-18T05:20:54.954Z,75.44
2019-05-18T05:23:25.637Z,75.38
2019-05-18T05:25:56.159Z,75.37
2019-05-18T05:28:26.601Z,75.36
2019-05-18T05:30:57.600Z,75.29
2019-05-18T05:33:28.354Z,75.25
2019-05-18T05:36:00.087Z,75.24
2019-05-18T05:38:33.017Z,75.22
2019-05-18T05:41:03.651Z,75.25
2019-05-18T05:43:34.239Z,75.06
2019-05-18T05:46:04.699Z,74.89
2019-05-18T05:48:34.951Z,74.89
2019-05-18T05:51:05.367Z,74.72
2019-05-18T05:53:35.644Z,74.56
2019-05-18T05:56:07.101Z,74.30
2019-05-18T05:58:37.338Z,74.12
2019-05-18T06:01:07.543Z,73.95
2019-05-18T06:03:37.713Z,73.63
2019-05-18T06:06:07.813Z,73.38
2019-05-18T06:08:38.129Z,73.14
2019-05-18T06:11:08.297Z,72.72
2019-05-18T06:13:40.101Z,72.46
2019-05-18T06:16:10.763Z,71.99
2019-05-18T06:18:40.913Z,71.56
2019-05-18T06:21:11.362Z,71.24
2019-05-18T06:23:41.639Z,70.88
2019-05-18T06:26:11.898Z,70.37
2019-05-18T06:28:42.511Z,69.85
2019-05-18T06:31:12.854Z,69.41
2019-05-18T06:33:43.096Z,68.99
2019-05-18T06:36:13.507Z,68.50
2019-05-18T06:38:43.727Z,68.12
2019-05-18T06:41:13.835Z,67.79
2019-05-18T06:43:44.062Z,67.25
2019-05-18T06:46:14.271Z,66.91
2019-05-18T06:48:44.510Z,66.75
2019-05-18T06:51:14.670Z,66.34
2019-05-18T06:53:44.894Z,66.06
2019-05-18T06:56:15.902Z,65.74
2019-05-18T06:58:46.533Z,65.29
2019-05-18T07:01:16.707Z,65.02
2019-05-18T07:03:47.003Z,63.06
2019-05-18T07:06:17.205Z,63.39
2019-05-18T07:08:47.347Z,63.26
2019-05-18T07:11:17.627Z,63.04
2019-05-18T07:13:47.886Z,62.47
2019-05-18T07:16:18.166Z,61.94
2019-05-18T07:18:48.436Z,61.44
2019-05-18T07:21:22.222Z,61.04
2019-05-18T07:23:50.663Z,60.67
2019-05-18T07:26:20.853Z,60.39
2019-05-18T07:28:51.147Z,59.73
2019-05-18T07:31:21.367Z,59.06
2019-05-18T07:33:52.686Z,58.74
2019-05-18T07:36:23.012Z,58.21
2019-05-18T07:38:53.077Z,57.73
2019-05-18T07:41:23.467Z,57.44
2019-05-18T07:43:53.650Z,57.44
2019-05-18T07:46:23.847Z,57.20
2019-05-18T07:48:54.005Z,56.92
2019-05-18T07:51:36.272Z,56.74
2019-05-18T07:53:56.168Z,56.19
2019-05-18T07:56:26.340Z,55.94
2019-05-18T07:58:56.715Z,55.86
2019-05-18T08:01:26.995Z,55.58
2019-05-18T08:03:57.586Z,55.11
2019-05-18T08:06:27.794Z,54.68
2019-05-18T08:08:58.052Z,54.22
2019-05-18T08:11:28.592Z,54.54
2019-05-18T08:13:58.696Z,53.95
2019-05-18T08:16:28.983Z,53.65
2019-05-18T08:18:59.178Z,53.43
2019-05-18T08:21:29.888Z,52.76
2019-05-18T08:24:01.972Z,52.40
2019-05-18T08:26:32.405Z,52.28
2019-05-18T08:29:02.773Z,51.93
2019-05-18T08:31:32.955Z,51.08
2019-05-18T08:34:03.188Z,50.75
2019-05-18T08:36:33.616Z,50.88
2019-05-18T08:39:04.823Z,51.06
2019-05-18T08:41:35.220Z,50.25
2019-05-18T08:44:06.898Z,50.34
2019-05-18T08:46:37.004Z,50.06
2019-05-18T08:49:07.321Z,50.13
2019-05-18T08:51:37.413Z,49.80
2019-05-18T08:54:07.758Z,49.26
2019-05-18T08:56:37.978Z,48.94
2019-05-18T08:59:08.303Z,48.26
2019-05-18T09:01:38.717Z,47.90
2019-05-18T09:04:08.913Z,47.86
2019-05-18T09:06:39.104Z,48.18
2019-05-18T09:09:09.381Z,47.22
2019-05-18T09:11:39.621Z,46.66
2019-05-18T09:14:09.858Z,46.66
2019-05-18T09:16:40.111Z,46.08
2019-05-18T09:19:10.693Z,45.86
2019-05-18T09:21:40.825Z,46.04
2019-05-18T09:24:11.169Z,45.08
2019-05-18T09:26:59.482Z,44.03
2019-05-18T09:29:29.737Z,43.79
2019-05-18T09:31:59.969Z,44.47
2019-05-18T09:34:30.175Z,44.20
2019-05-18T09:37:00.523Z,44.09
2019-05-18T09:39:30.801Z,43.81
2019-05-18T09:42:01.021Z,42.51
2019-05-18T09:44:31.252Z,42.80
2019-05-18T09:47:01.560Z,41.75
2019-05-18T09:49:31.777Z,40.88
2019-05-18T09:52:02.152Z,39.74
2019-05-18T09:54:32.764Z,39.39
2019-05-18T09:57:02.994Z,39.47
2019-05-18T09:59:33.271Z,39.37
2019-05-18T10:02:03.520Z,38.82
2019-05-18T10:04:33.757Z,38.18
2019-05-18T10:07:04.018Z,37.26
2019-05-18T10:09:39.342Z,37.69
2019-05-18T10:12:09.558Z,36.61
2019-05-18T10:14:39.979Z,36.89
2019-05-18T10:17:10.217Z,36.36
2019-05-18T10:19:40.453Z,34.43
2019-05-18T10:22:10.778Z,33.47
2019-05-18T10:24:40.933Z,33.86
2019-05-18T10:27:11.264Z,33.76
2019-05-18T10:29:41.512Z,34.19
2019-05-18T10:32:11.765Z,33.98
2019-05-18T10:34:41.999Z,33.64
2019-05-18T10:37:12.264Z,33.85
2019-05-18T10:39:42.446Z,34.14
2019-05-18T10:42:12.696Z,33.74
2019-05-18T10:44:42.888Z,32.53
2019-05-18T10:47:13.138Z,33.32
2019-05-18T10:49:43.446Z,33.62
2019-05-18T10:52:13.727Z,33.59
2019-05-18T10:54:43.987Z,32.04
2019-05-18T10:57:14.506Z,32.68
2019-05-18T10:59:44.862Z,32.73
2019-05-18T11:02:15.090Z,31.54
2019-05-18T11:04:45.431Z,31.67
2019-05-18T11:07:15.715Z,31.66
2019-05-18T11:09:45.974Z,31.00
2019-05-18T11:12:16.287Z,30.79
2019-05-18T11:14:46.695Z,30.02
2019-05-18T11:17:16.939Z,30.37
2019-05-18T11:19:47.263Z,30.79
2019-05-18T11:22:17.408Z,31.94
2019-05-18T11:24:47.616Z,31.41
2019-05-18T11:27:17.852Z,30.62
2019-05-18T11:29:48.058Z,29.98
2019-05-18T11:32:18.242Z,28.76
2019-05-18T11:34:48.437Z,27.72
2019-05-18T11:37:18.608Z,28.70
2019-05-18T11:39:48.805Z,28.26
2019-05-18T11:42:19.050Z,28.74
2019-05-18T11:44:49.283Z,28.52
2019-05-18T11:47:19.507Z,28.06
2019-05-18T11:49:49.705Z,27.45
2019-05-18T11:52:20.016Z,27.11
2019-05-18T11:54:50.206Z,26.84
2019-05-18T11:57:20.428Z,26.32
2019-05-18T11:59:50.663Z,25.89
2019-05-18T12:02:20.768Z,26.93
2019-05-18T12:04:51.076Z,27.20
2019-05-18T12:07:21.242Z,26.28
2019-05-18T12:09:51.402Z,25.60
2019-05-18T12:12:21.658Z,24.81
2019-05-18T12:14:51.897Z,24.22
2019-05-18T12:17:22.102Z,23.21
2019-05-18T12:19:52.354Z,23.17
2019-05-18T12:22:22.621Z,22.98
2019-05-18T12:24:52.761Z,23.84
2019-05-18T12:27:22.933Z,24.07
2019-05-18T12:29:53.191Z,23.14
2019-05-18T12:32:23.550Z,22.40
2019-05-18T12:34:56.199Z,22.57
2019-05-18T12:37:26.412Z,21.03
2019-05-18T12:39:56.688Z,21.01
2019-05-18T12:42:26.854Z,19.97
2019-05-18T12:44:57.098Z,19.58
2019-05-18T12:47:27.844Z,19.83
2019-05-18T12:49:58.172Z,20.44
2019-05-18T12:52:28.397Z,20.87
2019-05-18T12:54:58.690Z,20.30
2019-05-18T12:57:28.919Z,19.54
2019-05-18T12:59:59.434Z,19.46
2019-05-18T13:02:29.602Z,19.60
2019-05-18T13:05:00.114Z,19.45
2019-05-18T13:07:30.488Z,20.68
2019-05-18T13:10:00.846Z,21.08
2019-05-18T13:12:30.996Z,21.67
2019-05-18T13:15:01.615Z,22.23
2019-05-18T13:17:31.787Z,21.34
2019-05-18T13:20:02.135Z,20.83
2019-05-18T13:22:32.436Z,21.03
2019-05-18T13:25:02.922Z,21.60
2019-05-18T13:27:39.297Z,21.65
2019-05-18T13:30:05.463Z,22.22
2019-05-18T13:32:35.672Z,22.98
2019-05-18T13:35:07.183Z,23.45
2019-05-18T13:37:37.421Z,23.81
2019-05-18T13:40:08.572Z,23.77
2019-05-18T13:42:38.841Z,23.69
2019-05-18T13:45:11.268Z,23.21
2019-05-18T13:47:41.438Z,23.01
2019-05-18T13:50:11.846Z,23.07
2019-05-18T13:52:42.108Z,23.34
2019-05-18T13:55:12.615Z,23.58
2019-05-18T13:57:42.777Z,23.39
2019-05-18T14:00:13.551Z,23.11
2019-05-18T14:02:48.075Z,22.89
2019-05-18T14:05:18.856Z,22.84
2019-05-18T14:07:49.323Z,22.79
2019-05-18T14:12:54.491Z,23.20
2019-05-18T14:15:25.005Z,21.08
2019-05-18T14:17:55.716Z,21.72
2019-05-18T14:20:26.649Z,22.25
2019-05-18T14:25:34.263Z,21.98
2019-05-18T14:28:04.798Z,21.87
2019-05-18T14:30:35.320Z,22.31
2019-05-18T14:33:06.875Z,23.08
2019-05-18T14:35:37.321Z,22.68
2019-05-18T14:38:07.836Z,22.43
2019-05-18T14:40:38.359Z,22.34
2019-05-18T14:43:08.725Z,22.73
2019-05-18T14:45:39.240Z,22.78
2019-05-18T14:48:09.744Z,23.42
2019-05-18T14:50:40.060Z,23.75
2019-05-18T14:53:10.574Z,24.31
2019-05-18T14:55:43.750Z,23.87
2019-05-18T14:58:14.222Z,23.88
2019-05-18T15:00:44.794Z,24.21
2019-05-18T15:03:15.372Z,24.45
2019-05-18T15:05:45.945Z,24.75
2019-05-18T15:08:16.432Z,24.86
2019-05-18T15:10:46.902Z,25.31
2019-05-18T15:13:17.388Z,25.69
2019-05-18T15:15:48.646Z,26.16
2019-05-18T15:18:19.170Z,26.80
2019-05-18T15:20:49.598Z,26.77
2019-05-18T15:23:20.146Z,26.78
2019-05-18T15:25:51.505Z,26.94
2019-05-18T15:28:22.179Z,27.18
2019-05-18T15:30:52.647Z,27.22
2019-05-18T15:33:23.173Z,27.55
2019-05-18T15:35:55.240Z,27.22
2019-05-18T15:38:29.777Z,26.98
2019-05-18T15:41:00.300Z,27.16
2019-05-18T15:43:30.888Z,27.49
2019-05-18T15:46:01.324Z,27.40
2019-05-18T15:48:31.834Z,27.64
2019-05-18T15:51:02.287Z,28.46
2019-05-18T15:53:32.625Z,29.10
2019-05-18T15:56:05.757Z,29.80
2019-05-18T15:58:35.306Z,29.90
2019-05-18T16:01:07.166Z,30.28
2019-05-18T16:03:37.668Z,30.52
2019-05-18T16:06:08.107Z,30.57
2019-05-18T16:08:38.751Z,31.04
2019-05-18T16:11:09.386Z,31.53
2019-05-18T16:16:17.526Z,32.54
2019-05-18T16:18:48.103Z,32.68
2019-05-18T16:21:18.740Z,32.69
2019-05-18T16:23:49.340Z,32.91
2019-05-18T16:26:21.874Z,33.20
2019-05-18T16:28:52.220Z,33.19
2019-05-18T16:31:22.905Z,33.71
2019-05-18T16:33:53.437Z,33.83
2019-05-18T16:36:24.204Z,33.96
2019-05-18T16:38:54.541Z,34.14
2019-05-18T16:41:25.771Z,34.59
2019-05-18T16:43:56.603Z,34.54
2019-05-18T16:46:28.085Z,34.11
2019-05-18T16:48:58.771Z,34.37
2019-05-18T16:51:29.149Z,34.58
2019-05-18T16:53:59.470Z,34.54
2019-05-18T16:56:35.144Z,34.43
2019-05-18T16:59:02.256Z,34.42
2019-05-18T17:01:32.781Z,34.44
2019-05-18T17:04:04.185Z,34.91
2019-05-18T17:06:34.987Z,34.54
2019-05-18T17:09:06.235Z,34.42
2019-05-18T17:11:36.954Z,34.49
2019-05-18T17:14:07.587Z,34.74
2019-05-18T17:16:38.324Z,34.97
2019-05-18T17:19:08.890Z,35.20
2019-05-18T17:21:39.551Z,35.18
2019-05-18T17:24:10.303Z,35.14
2019-05-18T17:26:52.485Z,35.25
2019-05-18T17:31:49.274Z,36.01
2019-05-18T17:34:19.804Z,36.44
2019-05-18T17:36:52.538Z,36.49
2019-05-18T17:39:22.734Z,36.79
2019-05-18T17:41:53.137Z,36.96
2019-05-18T17:44:23.655Z,37.01
2019-05-18T17:46:54.149Z,37.03
2019-05-18T17:49:27.082Z,37.17
2019-05-18T17:51:56.844Z,37.15
2019-05-18T17:54:27.290Z,37.03
2019-05-18T17:57:07.936Z,36.92
2019-05-18T17:59:30.182Z,36.46
2019-05-18T18:02:00.614Z,36.03
2019-05-18T18:04:31.145Z,36.04
2019-05-18T18:07:01.789Z,35.88
2019-05-18T18:09:32.306Z,35.23
2019-05-18T18:12:02.942Z,34.90
2019-05-18T18:14:33.571Z,34.34
2019-05-18T18:17:04.586Z,33.11
2019-05-18T18:19:35.074Z,31.76
2019-05-18T18:22:07.823Z,30.93
2019-05-18T18:24:38.351Z,30.35
2019-05-18T18:27:23.819Z,30.46
2019-05-18T18:29:41.487Z,30.94
2019-05-18T18:32:12.070Z,31.72
2019-05-18T18:34:42.627Z,32.56
2019-05-18T18:37:13.144Z,32.92
2019-05-18T18:39:43.709Z,32.62
2019-05-18T18:42:14.402Z,32.36
2019-05-18T18:44:45.075Z,32.43
2019-05-18T18:47:15.666Z,32.46
2019-05-18T18:49:46.350Z,32.84
2019-05-18T18:52:23.357Z,33.56
2019-05-18T18:54:54.016Z,34.39
2019-05-18T18:57:38.503Z,35.42
2019-05-18T18:59:57.148Z,36.43
2019-05-18T19:02:27.818Z,37.33
2019-05-18T19:04:58.153Z,37.98
2019-05-18T19:07:28.749Z,38.80
2019-05-18T19:09:59.241Z,39.59
2019-05-18T19:12:30.054Z,40.20
2019-05-18T19:15:00.662Z,40.91
2019-05-18T19:17:31.285Z,41.54
2019-05-18T19:20:01.921Z,42.10
2019-05-18T19:22:32.724Z,42.69
2019-05-18T19:25:03.866Z,43.28
2019-05-18T19:27:34.473Z,43.47
2019-05-18T19:30:09.566Z,43.52
2019-05-18T19:32:37.900Z,43.59
2019-05-18T19:35:08.555Z,43.91
2019-05-18T19:37:38.972Z,44.22
2019-05-18T19:40:10.793Z,44.45
2019-05-18T19:42:41.446Z,44.87
2019-05-18T19:45:13.952Z,45.32
2019-05-18T19:47:44.657Z,46.14
2019-05-18T19:50:18.218Z,46.97
2019-05-18T19:52:48.689Z,47.71
2019-05-18T19:55:19.634Z,48.22
2019-05-18T19:57:50.258Z,48.89
2019-05-18T20:00:21.423Z,49.62
2019-05-18T20:02:52.029Z,49.97
2019-05-18T20:05:22.515Z,50.45
2019-05-18T20:07:52.855Z,50.79
2019-05-18T20:10:23.487Z,51.59
2019-05-18T20:12:53.972Z,51.93
2019-05-18T20:15:24.371Z,52.37
2019-05-18T20:17:54.892Z,53.17
2019-05-18T20:20:25.790Z,53.67
2019-05-18T20:22:56.389Z,53.88
2019-05-18T20:25:27.089Z,54.33
2019-05-18T20:27:57.704Z,54.77
2019-05-18T20:30:28.333Z,55.15
2019-05-18T20:32:58.878Z,55.35
2019-05-18T20:35:29.319Z,55.55
2019-05-18T20:37:59.733Z,55.94
2019-05-18T20:40:30.273Z,55.97
2019-05-18T20:43:01.050Z,56.30
2019-05-18T20:48:17.143Z,57.58
2019-05-18T20:50:47.675Z,57.50
2019-05-18T20:53:18.246Z,57.79
2019-05-18T20:55:51.123Z,57.99
2019-05-18T20:58:21.924Z,58.26
2019-05-18T21:00:53.745Z,58.62
2019-05-18T21:03:24.255Z,58.68
2019-05-18T21:05:54.801Z,58.34
2019-05-18T21:08:25.551Z,58.63
2019-05-18T21:10:56.056Z,58.61
2019-05-18T21:13:26.645Z,59.06
2019-05-18T21:15:57.440Z,59.54
2019-05-18T21:18:28.175Z,59.73
2019-05-18T21:20:58.646Z,60.02
2019-05-18T21:23:29.548Z,59.88
2019-05-18T21:26:00.152Z,60.59
2019-05-18T21:28:30.680Z,60.76
2019-05-18T21:31:01.190Z,60.50
2019-05-18T21:33:31.811Z,60.41
2019-05-18T21:36:02.604Z,60.66
2019-05-18T21:38:33.125Z,61.02
2019-05-18T21:41:03.598Z,61.50
2019-05-18T21:43:33.958Z,61.76
2019-05-18T21:46:04.585Z,62.22
2019-05-18T21:48:37.650Z,62.29
2019-05-18T21:51:08.138Z,62.25
2019-05-18T21:53:38.720Z,62.16
2019-05-18T21:56:12.320Z,62.61
2019-05-18T21:58:42.788Z,62.96
2019-05-18T22:01:14.304Z,63.18
2019-05-18T22:03:48.196Z,63.45
2019-05-18T22:06:18.082Z,63.27
2019-05-18T22:08:49.585Z,63.42
2019-05-18T22:11:20.186Z,62.98
2019-05-18T22:13:50.623Z,62.63
2019-05-18T22:16:42.286Z,62.93
2019-05-18T22:19:12.705Z,63.62
2019-05-18T22:21:42.985Z,64.08
2019-05-18T22:24:46.928Z,64.64
2019-05-18T22:27:17.128Z,64.84
2019-05-18T22:29:47.399Z,64.98
2019-05-18T22:32:17.618Z,65.39
2019-05-18T22:34:47.835Z,65.54
2019-05-18T22:37:18.475Z,65.29
2019-05-18T22:39:48.617Z,65.59
2019-05-18T22:42:18.798Z,66.01
2019-05-18T22:44:49.094Z,66.29
2019-05-18T22:47:19.248Z,66.51
2019-05-18T22:49:49.468Z,66.45
2019-05-18T22:52:19.762Z,66.61
2019-05-18T22:54:49.947Z,66.77
2019-05-18T22:57:20.176Z,66.79
2019-05-18T22:59:50.482Z,66.91
2019-05-18T23:02:20.622Z,67.28
2019-05-18T23:04:50.747Z,67.55
2019-05-18T23:07:20.931Z,67.65
2019-05-18T23:09:51.021Z,67.53
2019-05-18T23:12:21.191Z,67.57
2019-05-18T23:14:51.383Z,67.78
2019-05-18T23:17:21.511Z,68.43
2019-05-18T23:19:51.740Z,68.46
2019-05-18T23:22:21.941Z,68.25
2019-05-18T23:24:52.156Z,68.56
2019-05-18T23:27:22.288Z,68.40
2019-05-18T23:29:52.532Z,68.67
2019-05-18T23:32:22.736Z,68.51
2019-05-18T23:34:53.063Z,68.48
2019-05-18T23:37:23.316Z,68.19
2019-05-18T23:39:53.653Z,68.31
2019-05-18T23:42:23.879Z,68.34
2019-05-18T23:44:53.979Z,68.48
2019-05-18T23:47:24.237Z,69.29
2019-05-18T23:49:54.455Z,68.58
2019-05-18T23:52:24.671Z,68.42
2019-05-18T23:54:54.813Z,68.36
2019-05-18T23:57:25.085Z,68.25
2019-05-18T23:59:55.367Z,68.14
